Time;durP1;ratioP1;P1;durP2;ratioP2;P2;SDS_P1;SDS_P2;PMS_P1;PMS_P2;Temp;Humidity;BMP_temperature;BMP_pressure;BME280_temperature;BME280_humidity;BME280_pressure;Samples;Min_cycle;Max_cycle;Signal;HPM_P1;HPM_P2
2022/03/08 00:01:50;;;;;;;15.77;8.45;;;;;;;3.01;43.46;100720.47;5009288;28;20040;-81
2022/03/08 00:04:17;;;;;;;12.95;7.72;;;;;;;3.01;43.38;100715.22;5022736;28;20056;-82
2022/03/08 00:06:45;;;;;;;15.57;8.90;;;;;;;2.97;43.37;100722.34;5020641;28;20044;-81
2022/03/08 00:09:12;;;;;;;15.80;8.70;;;;;;;2.97;43.37;100724.13;5010072;28;20041;-81
2022/03/08 00:11:39;;;;;;;13.95;8.45;;;;;;;2.99;43.29;100714.44;5024530;28;20041;-81
2022/03/08 00:14:05;;;;;;;16.02;8.55;;;;;;;2.95;43.28;100716.34;5036415;28;20041;-82
2022/03/08 00:16:37;;;;;;;14.75;8.02;;;;;;;2.93;43.53;100718.19;5007639;28;20044;-81
2022/03/08 00:19:06;;;;;;;15.50;8.57;;;;;;;2.90;43.79;100713.06;5023262;28;20538;-81
2022/03/08 00:21:33;;;;;;;15.27;8.68;;;;;;;2.90;43.56;100718.31;5020773;28;20048;-82
2022/03/08 00:24:00;;;;;;;15.18;8.02;;;;;;;2.90;43.70;100720.06;4990020;28;20048;-81
2022/03/08 00:26:27;;;;;;;14.85;8.25;;;;;;;2.88;43.60;100708.81;5005618;28;20040;-81
2022/03/08 00:28:53;;;;;;;16.85;8.15;;;;;;;2.89;43.68;100713.97;5023208;28;20520;-81
2022/03/08 00:31:20;;;;;;;12.57;7.10;;;;;;;2.89;43.40;100713.13;5021582;28;20528;-82
2022/03/08 00:33:47;;;;;;;13.35;8.18;;;;;;;2.87;43.67;100704.44;5036676;28;20072;-81
2022/03/08 00:36:14;;;;;;;13.65;7.50;;;;;;;2.88;43.39;100712.28;4997756;28;20430;-81
2022/03/08 00:38:44;;;;;;;14.85;8.05;;;;;;;2.87;43.55;100707.91;5005021;28;20098;-81
2022/03/08 00:41:11;;;;;;;14.43;7.95;;;;;;;2.89;43.52;100697.38;5011593;28;20041;-81
2022/03/08 00:43:37;;;;;;;12.18;7.22;;;;;;;2.87;43.57;100707.91;5023258;28;20037;-81
2022/03/08 00:46:04;;;;;;;13.13;7.90;;;;;;;2.87;43.73;100702.69;5023819;28;20041;-81
2022/03/08 00:48:33;;;;;;;14.82;7.75;;;;;;;2.89;43.67;100700.00;5025639;28;20063;-82
2022/03/08 00:51:00;;;;;;;13.98;7.95;;;;;;;2.84;43.75;100700.19;5031320;28;20044;-81
2022/03/08 00:53:28;;;;;;;14.35;8.20;;;;;;;2.86;43.79;100706.22;5020493;28;20053;-81
2022/03/08 00:55:55;;;;;;;12.73;7.97;;;;;;;2.85;43.74;100696.66;5016552;28;20044;-81
2022/03/08 00:58:22;;;;;;;13.57;7.55;;;;;;;2.87;43.70;100696.59;5035813;28;20048;-81
2022/03/08 01:00:49;;;;;;;12.93;8.00;;;;;;;2.88;43.73;100695.69;5019804;28;20053;-81
2022/03/08 01:03:16;;;;;;;15.00;8.20;;;;;;;2.88;43.77;100693.06;5027064;28;20176;-81
2022/03/08 01:05:44;;;;;;;14.55;8.23;;;;;;;2.86;43.59;100687.88;4986095;28;20044;-81
2022/03/08 01:08:11;;;;;;;10.57;5.60;;;;;;;2.87;43.77;100688.72;5007106;28;20446;-81
2022/03/08 01:10:37;;;;;;;12.80;7.10;;;;;;;2.86;44.02;100681.78;5003954;28;20123;-81
2022/03/08 01:13:04;;;;;;;12.18;7.50;;;;;;;2.87;43.81;100676.44;5029287;28;20461;-81
2022/03/08 01:15:32;;;;;;;12.25;7.68;;;;;;;2.87;43.91;100681.69;5009117;28;20047;-81
2022/03/08 01:17:59;;;;;;;10.70;7.20;;;;;;;2.89;43.79;100677.25;5009802;28;20124;-81
2022/03/08 01:20:26;;;;;;;11.35;7.25;;;;;;;2.88;43.58;100675.53;5025980;28;20048;-82
2022/03/08 01:22:54;;;;;;;13.10;7.55;;;;;;;2.88;43.33;100670.31;5014043;28;20117;-81
2022/03/08 01:25:21;;;;;;;12.95;7.65;;;;;;;2.81;43.50;100674.09;5004750;28;20404;-82
2022/03/08 01:27:49;;;;;;;15.65;7.85;;;;;;;2.76;43.75;100660.31;5002404;28;20057;-82
2022/03/08 01:30:18;;;;;;;13.55;7.00;;;;;;;2.72;43.66;100664.00;4992636;28;20041;-81
2022/03/08 01:32:45;;;;;;;13.85;7.90;;;;;;;2.72;43.88;100657.00;5011076;28;20036;-81
2022/03/08 01:35:13;;;;;;;16.63;8.63;;;;;;;2.72;44.04;100653.50;5032680;28;20053;-81
2022/03/08 01:37:40;;;;;;;13.00;7.65;;;;;;;2.73;43.70;100649.97;5001523;28;20496;-81
2022/03/08 01:40:09;;;;;;;15.20;7.38;;;;;;;2.70;44.01;100656.22;4999848;28;20049;-81
2022/03/08 01:42:37;;;;;;;11.35;7.57;;;;;;;2.68;44.24;100654.56;5011635;28;20049;-81
2022/03/08 01:45:04;;;;;;;10.43;6.43;;;;;;;2.69;44.21;100648.38;4985923;28;20067;-81
2022/03/08 01:47:31;;;;;;;11.88;7.38;;;;;;;2.68;44.20;100646.69;5010149;28;20476;-81
2022/03/08 01:49:58;;;;;;;13.48;7.55;;;;;;;2.66;44.19;100644.13;5021446;28;20061;-81
2022/03/08 01:52:26;;;;;;;12.93;7.38;;;;;;;2.68;44.62;100636.22;5007225;28;20116;-81
2022/03/08 01:54:53;;;;;;;14.50;7.75;;;;;;;2.66;44.59;100638.03;4999030;28;20059;-81
2022/03/08 01:57:23;;;;;;;13.13;8.13;;;;;;;2.65;45.01;100634.56;5035856;28;20106;-81
2022/03/08 01:59:51;;;;;;;13.98;8.20;;;;;;;2.64;44.89;100621.50;5013989;28;20048;-81
2022/03/08 02:02:19;;;;;;;13.18;7.97;;;;;;;2.61;45.11;100606.75;5026035;28;20380;-81
2022/03/08 02:04:46;;;;;;;12.88;8.07;;;;;;;2.61;45.16;100622.50;5013553;28;20049;-81
2022/03/08 02:07:13;;;;;;;13.30;8.45;;;;;;;2.59;44.99;100621.72;5026934;28;20067;-81
2022/03/08 02:09:40;;;;;;;14.93;8.68;;;;;;;2.59;45.36;100613.84;4990963;28;20543;-81
2022/03/08 02:12:07;;;;;;;14.95;8.50;;;;;;;2.58;45.25;100618.25;5026670;28;20045;-81
2022/03/08 02:14:34;;;;;;;12.48;7.38;;;;;;;2.57;45.46;100610.44;4990683;28;20053;-81
2022/03/08 02:17:01;;;;;;;12.30;8.00;;;;;;;2.56;45.36;100611.34;5004254;28;20381;-81
2022/03/08 02:19:28;;;;;;;14.32;7.95;;;;;;;2.54;45.45;100606.16;5017235;28;20045;-81
2022/03/08 02:21:55;;;;;;;14.82;8.15;;;;;;;2.54;45.35;100619.28;5015103;28;20049;-81
2022/03/08 02:24:22;;;;;;;14.90;8.18;;;;;;;2.54;45.37;100610.56;4997056;28;20127;-81
2022/03/08 02:26:50;;;;;;;17.33;9.23;;;;;;;2.52;45.65;100609.78;5008998;28;20134;-81
2022/03/08 02:29:17;;;;;;;15.82;8.75;;;;;;;2.48;45.44;100603.81;5008374;28;20044;-82
2022/03/08 02:31:47;;;;;;;14.90;8.07;;;;;;;2.47;45.59;100607.38;5018341;28;20496;-81
2022/03/08 02:34:15;;;;;;;16.00;8.73;;;;;;;2.46;45.75;100602.19;5015895;28;20518;-81
2022/03/08 02:36:56;;;;;;;13.40;8.20;;;;;;;2.39;46.36;100605.06;4996424;28;20156;-81
2022/03/08 02:39:23;;;;;;;15.73;8.45;;;;;;;2.42;46.03;100609.34;5018644;28;20127;-81
2022/03/08 02:41:50;;;;;;;13.95;7.78;;;;;;;2.41;45.85;100610.22;5016729;28;20048;-82
2022/03/08 02:44:17;;;;;;;12.88;7.90;;;;;;;2.41;46.08;100612.00;5009487;28;20045;-81
2022/03/08 02:46:44;;;;;;;14.05;8.18;;;;;;;2.40;46.05;100605.94;5018189;28;20037;-81
2022/03/08 02:49:10;;;;;;;12.20;8.52;;;;;;;2.38;45.98;100603.34;5021249;28;20047;-81
2022/03/08 02:51:37;;;;;;;19.23;8.95;;;;;;;2.37;46.08;100600.81;5018462;28;20984;-81
2022/03/08 02:54:05;;;;;;;13.02;8.23;;;;;;;2.35;46.52;100595.63;5007092;28;20131;-81
2022/03/08 02:56:32;;;;;;;15.15;8.80;;;;;;;2.32;46.30;100598.38;5020665;28;20122;-81
2022/03/08 02:58:58;;;;;;;16.15;8.27;;;;;;;2.30;46.58;100602.84;5036710;28;20036;-81
2022/03/08 03:01:25;;;;;;;13.07;8.32;;;;;;;2.30;46.36;100600.22;5003157;28;20056;-81
2022/03/08 03:03:52;;;;;;;13.88;8.32;;;;;;;2.28;46.46;100602.03;4980432;28;20083;-82
2022/03/08 03:06:19;;;;;;;17.10;8.35;;;;;;;2.26;46.55;100596.00;5000300;28;20070;-81
2022/03/08 03:08:46;;;;;;;14.05;8.07;;;;;;;2.25;46.69;100602.16;5016062;28;20147;-81
2022/03/08 03:11:13;;;;;;;15.85;9.38;;;;;;;2.23;46.84;100595.28;4991093;28;20053;-82
2022/03/08 03:13:41;;;;;;;17.50;8.90;;;;;;;2.19;46.70;100586.72;5004876;28;20040;-81
2022/03/08 03:16:08;;;;;;;16.13;8.20;;;;;;;2.18;46.76;100595.47;5005563;28;20040;-81
2022/03/08 03:18:34;;;;;;;13.77;8.68;;;;;;;2.17;47.22;100580.69;5007892;28;20045;-81
2022/03/08 03:21:01;;;;;;;15.57;8.23;;;;;;;2.14;46.88;100575.56;5011881;28;20055;-81
2022/03/08 03:23:28;;;;;;;15.25;8.48;;;;;;;2.09;46.96;100574.91;5012071;28;20086;-81
2022/03/08 03:25:55;;;;;;;16.17;9.32;;;;;;;2.10;46.60;100580.06;5024348;28;20051;-82
2022/03/08 03:28:22;;;;;;;13.52;8.55;;;;;;;2.09;46.75;100580.16;5017985;28;20052;-81
2022/03/08 03:30:49;;;;;;;15.73;8.07;;;;;;;2.09;46.91;100580.16;5030305;28;20051;-81
2022/03/08 03:33:15;;;;;;;12.50;8.07;;;;;;;2.10;47.06;100589.72;5008869;28;20480;-81
2022/03/08 03:35:42;;;;;;;16.70;9.20;;;;;;;2.09;47.06;100585.41;5005316;28;20033;-81
2022/03/08 03:38:09;;;;;;;14.93;8.27;;;;;;;2.09;47.06;100581.00;5040453;28;20037;-81
2022/03/08 03:40:36;;;;;;;13.85;7.88;;;;;;;2.11;47.00;100583.53;5002990;28;20045;-81
2022/03/08 03:43:03;;;;;;;14.68;8.25;;;;;;;2.10;47.07;100587.09;5011417;28;20044;-81
2022/03/08 03:45:29;;;;;;;18.25;8.25;;;;;;;2.09;47.10;100582.78;4992235;28;20656;-81
2022/03/08 03:47:56;;;;;;;16.30;8.73;;;;;;;2.07;47.10;100577.59;4986850;28;20099;-81
2022/03/08 03:50:23;;;;;;;14.00;7.95;;;;;;;2.06;47.05;100575.91;4993614;28;20057;-81
2022/03/08 03:52:50;;;;;;;15.07;8.88;;;;;;;2.05;47.11;100579.41;4996717;28;20047;-81
2022/03/08 03:55:17;;;;;;;16.02;8.65;;;;;;;2.02;47.33;100573.47;5003703;28;20063;-82
2022/03/08 03:57:43;;;;;;;14.95;7.97;;;;;;;2.01;47.33;100574.34;5012253;28;20067;-81
2022/03/08 04:00:12;;;;;;;17.33;9.43;;;;;;;2.00;47.29;100580.53;5034243;28;20551;-81
2022/03/08 04:02:39;;;;;;;15.57;9.30;;;;;;;1.99;47.17;100579.69;5010850;28;20041;-81
2022/03/08 04:05:07;;;;;;;12.07;7.93;;;;;;;1.97;47.22;100571.03;5030531;28;20613;-81
2022/03/08 04:07:34;;;;;;;16.35;9.15;;;;;;;1.97;47.26;100576.25;5018309;28;20136;-81
2022/03/08 04:10:02;;;;;;;17.55;9.45;;;;;;;1.98;47.25;100580.56;5020020;28;20040;-81
2022/03/08 04:12:29;;;;;;;15.68;8.50;;;;;;;1.96;47.48;100577.19;5019260;28;20045;-81
2022/03/08 04:14:56;;;;;;;14.18;8.40;;;;;;;1.97;47.74;100578.03;4995919;28;20496;-81
2022/03/08 04:17:22;;;;;;;13.80;8.60;;;;;;;1.95;47.42;100585.94;5019436;28;20037;-81
2022/03/08 04:19:49;;;;;;;16.17;8.75;;;;;;;1.94;47.47;100581.63;5005483;28;20049;-81
2022/03/08 04:22:16;;;;;;;15.05;8.95;;;;;;;1.93;47.55;100585.16;4988470;28;20490;-81
2022/03/08 04:24:43;;;;;;;14.45;8.95;;;;;;;1.92;47.47;100580.84;4963852;28;20046;-81
2022/03/08 04:27:10;;;;;;;14.95;9.05;;;;;;;1.88;47.72;100582.75;4937706;28;20057;-81
2022/03/08 04:29:37;;;;;;;15.07;8.32;;;;;;;1.87;47.66;100577.56;4947797;28;20445;-81
2022/03/08 04:32:04;;;;;;;17.40;9.95;;;;;;;1.86;47.57;100576.72;4964549;28;20568;-81
2022/03/08 04:34:30;;;;;;;18.23;10.45;;;;;;;1.84;47.83;100578.53;4950282;28;20111;-81
2022/03/08 04:36:57;;;;;;;27.23;12.68;;;;;;;1.84;47.57;100559.34;4952868;28;20583;-81
2022/03/08 04:39:24;;;;;;;22.48;9.75;;;;;;;1.84;47.48;100577.69;4945535;28;20046;-80
2022/03/08 04:41:51;;;;;;;17.20;9.50;;;;;;;1.82;47.40;100580.34;4980412;28;20062;-81
2022/03/08 04:44:18;;;;;;;20.58;10.10;;;;;;;1.81;47.26;100568.19;4931120;28;20039;-81
2022/03/08 04:46:49;;;;;;;15.02;8.55;;;;;;;1.79;47.64;100580.47;4965912;28;20054;-81
2022/03/08 04:49:16;;;;;;;16.98;8.68;;;;;;;1.79;47.47;100575.25;4948659;28;20514;-81
2022/03/08 04:51:43;;;;;;;16.92;8.98;;;;;;;1.79;47.81;100577.03;4951041;28;20378;-81
2022/03/08 04:54:10;;;;;;;16.23;9.63;;;;;;;1.79;47.71;100561.31;4968576;28;20037;-82
2022/03/08 04:56:36;;;;;;;15.38;8.82;;;;;;;1.79;47.26;100566.53;5009267;28;20511;-81
2022/03/08 04:59:03;;;;;;;11.68;7.97;;;;;;;1.77;46.97;100566.59;5013135;28;20055;-81
2022/03/08 05:01:31;;;;;;;16.08;9.20;;;;;;;1.76;47.39;100574.53;5005887;28;20044;-81
2022/03/08 05:03:58;;;;;;;15.55;8.75;;;;;;;1.74;47.19;100564.94;5029849;28;20385;-82
2022/03/08 05:06:26;;;;;;;15.88;9.38;;;;;;;1.71;47.39;100566.84;5008256;28;20116;-81
2022/03/08 05:08:53;;;;;;;12.88;7.97;;;;;;;1.70;47.71;100570.38;5020259;28;20045;-81
2022/03/08 05:11:19;;;;;;;16.95;8.13;;;;;;;1.69;47.52;100566.91;4993352;28;20068;-82
2022/03/08 05:13:46;;;;;;;16.63;8.85;;;;;;;1.70;47.35;100573.81;4999299;28;20131;-81
2022/03/08 05:16:14;;;;;;;15.75;9.30;;;;;;;1.70;47.33;100572.97;5005231;28;20419;-81
2022/03/08 05:18:41;;;;;;;17.50;9.55;;;;;;;1.69;47.45;100571.28;5016652;28;21868;-81
2022/03/08 05:21:08;;;;;;;21.50;9.57;;;;;;;1.63;46.91;100569.78;5008480;28;20036;-81
2022/03/08 05:23:35;;;;;;;14.77;8.77;;;;;;;1.62;46.94;100565.44;5012323;28;20041;-78
2022/03/08 05:26:04;;;;;;;16.23;8.73;;;;;;;1.58;46.86;100569.09;4999256;28;20106;-78
2022/03/08 05:28:32;;;;;;;16.95;8.93;;;;;;;1.55;47.27;100563.97;5013146;28;20044;-78
2022/03/08 05:30:59;;;;;;;17.33;8.52;;;;;;;1.56;47.43;100565.69;5016723;28;20052;-78
2022/03/08 05:33:25;;;;;;;18.70;9.45;;;;;;;1.55;47.30;100560.50;5022001;28;20047;-78
2022/03/08 05:35:52;;;;;;;16.15;9.07;;;;;;;1.56;47.22;100564.84;5018885;28;20381;-78
2022/03/08 05:38:19;;;;;;;14.77;8.63;;;;;;;1.55;47.15;100555.28;5016852;28;20102;-77
2022/03/08 05:40:45;;;;;;;15.65;9.15;;;;;;;1.56;47.04;100550.00;5018869;28;20044;-77
2022/03/08 05:43:12;;;;;;;20.45;9.27;;;;;;;1.52;46.94;100548.41;5008232;28;20119;-76
2022/03/08 05:45:39;;;;;;;16.67;9.00;;;;;;;1.46;47.04;100557.34;5028805;28;20583;-76
2022/03/08 05:48:09;;;;;;;18.38;9.23;;;;;;;1.42;47.11;100553.13;5007969;28;20055;-76
2022/03/08 05:50:36;;;;;;;13.20;8.35;;;;;;;1.41;47.05;100564.53;5025050;28;20091;-76
2022/03/08 05:53:03;;;;;;;18.45;9.27;;;;;;;1.39;47.17;100565.50;5028335;28;20486;-76
2022/03/08 05:55:30;;;;;;;14.90;8.23;;;;;;;1.35;47.04;100566.50;5026255;28;20052;-75
2022/03/08 05:57:57;;;;;;;18.55;9.00;;;;;;;1.29;47.06;100572.84;5000944;28;20048;-76
2022/03/08 06:00:23;;;;;;;17.23;9.00;;;;;;;1.22;47.43;100571.38;5024801;28;20132;-76
2022/03/08 06:02:51;;;;;;;15.57;8.43;;;;;;;1.21;47.75;100578.38;5033580;28;20198;-76
2022/03/08 06:05:18;;;;;;;16.85;9.18;;;;;;;1.20;47.76;100595.00;5002397;28;20500;-76
2022/03/08 06:07:51;;;;;;;19.17;9.52;;;;;;;1.18;47.43;100588.09;5035054;28;20094;-76
2022/03/08 06:10:18;;;;;;;15.40;8.60;;;;;;;1.18;47.67;100596.81;5017961;28;20597;-76
2022/03/08 06:12:45;;;;;;;17.77;9.02;;;;;;;1.19;47.62;100593.25;5019191;28;20079;-76
2022/03/08 06:15:12;;;;;;;17.17;8.43;;;;;;;1.18;47.53;100595.94;5029645;28;20060;-77
2022/03/08 06:17:38;;;;;;;16.88;9.48;;;;;;;1.15;47.51;100591.69;5012473;28;20131;-76
2022/03/08 06:20:06;;;;;;;17.90;9.30;;;;;;;1.19;47.74;100601.09;5008989;28;20067;-76
2022/03/08 06:22:32;;;;;;;17.20;9.13;;;;;;;1.16;47.66;100589.91;5054639;28;20047;-76
2022/03/08 06:24:59;;;;;;;17.60;9.98;;;;;;;1.10;47.46;100601.47;5035302;28;20048;-76
2022/03/08 06:27:26;;;;;;;20.20;9.80;;;;;;;1.10;47.56;100604.09;5004975;28;20056;-77
2022/03/08 06:29:54;;;;;;;17.67;9.48;;;;;;;1.14;47.59;100605.66;5012570;28;20051;-76
2022/03/08 06:32:21;;;;;;;16.05;8.60;;;;;;;1.07;47.77;100594.59;5016223;28;20051;-77
2022/03/08 06:34:50;;;;;;;17.85;8.98;;;;;;;1.08;47.94;100604.13;5007333;28;20489;-77
2022/03/08 06:37:18;;;;;;;17.05;8.57;;;;;;;1.13;48.27;100595.28;5030119;28;20037;-77
2022/03/08 06:39:46;;;;;;;20.35;8.20;;;;;;;1.06;48.19;100599.88;5008235;28;20084;-77
2022/03/08 06:42:13;;;;;;;19.88;8.80;;;;;;;1.11;47.99;100605.78;5012004;28;20102;-77
2022/03/08 06:44:40;;;;;;;14.43;9.10;;;;;;;1.12;48.00;100614.47;5020279;28;20048;-77
2022/03/08 06:47:07;;;;;;;14.25;8.20;;;;;;;1.12;48.19;100611.84;5025311;28;20086;-77
2022/03/08 06:49:40;;;;;;;16.60;9.35;;;;;;;1.08;48.26;100609.38;5015856;28;20475;-77
2022/03/08 06:52:08;;;;;;;16.42;8.93;;;;;;;1.14;48.37;100615.28;5018133;28;20068;-77
2022/03/08 06:54:35;;;;;;;19.73;9.77;;;;;;;1.16;48.02;100606.47;5031776;28;20044;-77
2022/03/08 06:57:03;;;;;;;20.58;9.70;;;;;;;1.13;48.45;100611.81;5001917;28;20049;-77
2022/03/08 06:59:30;;;;;;;15.35;9.20;;;;;;;1.18;48.31;100616.88;5047750;28;20041;-77
2022/03/08 07:01:56;;;;;;;19.80;8.95;;;;;;;1.18;48.07;100617.72;5020081;28;20053;-77
2022/03/08 07:04:24;;;;;;;22.50;10.02;;;;;;;1.20;48.37;100623.75;5015916;28;20068;-78
2022/03/08 07:06:54;;;;;;;22.55;9.40;;;;;;;1.17;48.69;100617.78;5026999;28;20071;-77
2022/03/08 07:09:21;;;;;;;16.00;9.80;;;;;;;1.23;48.57;100620.19;5034683;28;20419;-77
2022/03/08 07:11:47;;;;;;;17.45;9.45;;;;;;;1.13;48.48;100622.28;5018390;28;20396;-77
2022/03/08 07:14:15;;;;;;;19.05;10.13;;;;;;;1.17;48.44;100620.38;4999902;28;20048;-77
2022/03/08 07:16:43;;;;;;;16.02;9.07;;;;;;;1.16;48.47;100618.69;5015089;28;20045;-77
2022/03/08 07:19:10;;;;;;;16.48;9.70;;;;;;;1.21;48.80;100625.47;5033657;28;20441;-77
2022/03/08 07:21:36;;;;;;;18.98;9.63;;;;;;;1.25;48.63;100628.84;5016152;28;20045;-77
2022/03/08 07:24:04;;;;;;;13.85;8.85;;;;;;;1.25;48.54;100631.44;5036129;28;20484;-76
2022/03/08 07:26:31;;;;;;;17.90;8.88;;;;;;;1.19;48.70;100627.25;5018200;28;20040;-77
2022/03/08 07:28:57;;;;;;;18.45;9.43;;;;;;;1.24;48.48;100627.94;5035005;28;20054;-77
2022/03/08 07:31:24;;;;;;;19.95;9.90;;;;;;;1.28;48.69;100623.47;5027996;28;20036;-77
2022/03/08 07:33:51;;;;;;;17.80;9.85;;;;;;;1.32;48.67;100632.06;5034111;28;20055;-77
2022/03/08 07:36:18;;;;;;;20.60;9.20;;;;;;;1.35;48.30;100616.22;5020900;28;20044;-77
2022/03/08 07:38:45;;;;;;;18.88;9.52;;;;;;;1.35;48.64;100624.06;5029560;28;20056;-76
2022/03/08 07:41:11;;;;;;;20.13;10.45;;;;;;;1.40;48.68;100620.41;5034469;28;20469;-77
2022/03/08 07:43:39;;;;;;;16.35;9.02;;;;;;;1.43;48.59;100628.13;5030758;28;20578;-78
2022/03/08 07:46:07;;;;;;;24.65;10.27;;;;;;;1.39;48.64;100621.28;5021096;28;20045;-77
2022/03/08 07:48:35;;;;;;;16.10;9.13;;;;;;;1.39;48.87;100617.84;5031446;28;20403;-77
2022/03/08 07:51:03;;;;;;;20.95;9.10;;;;;;;1.44;48.59;100618.50;5025415;28;20045;-77
2022/03/08 07:53:31;;;;;;;18.52;10.15;;;;;;;1.45;48.82;100615.84;5031096;28;20662;-77
2022/03/08 07:55:58;;;;;;;19.58;9.50;;;;;;;1.41;49.09;100635.19;5022310;28;20411;-77
2022/03/08 07:58:25;;;;;;;18.50;9.65;;;;;;;1.46;49.20;100628.00;5018355;28;20517;-78
2022/03/08 08:00:51;;;;;;;20.38;9.85;;;;;;;1.43;49.32;100635.97;5008637;28;20056;-78
2022/03/08 08:03:18;;;;;;;16.77;9.82;;;;;;;1.59;49.10;100631.00;5033045;28;20457;-77
2022/03/08 08:05:45;;;;;;;18.13;10.07;;;;;;;1.48;49.01;100628.81;5052088;28;20048;-77
2022/03/08 08:08:12;;;;;;;19.27;9.55;;;;;;;1.47;49.00;100627.09;5036795;28;20500;-79
2022/03/08 08:10:39;;;;;;;19.00;10.13;;;;;;;1.55;49.04;100626.78;5014665;28;20056;-78
2022/03/08 08:13:06;;;;;;;21.13;9.82;;;;;;;1.59;49.35;100622.31;5018711;28;20037;-77
2022/03/08 08:15:36;;;;;;;16.33;9.45;;;;;;;1.63;49.30;100629.09;5017577;28;20052;-78
2022/03/08 08:18:09;;;;;;;15.88;9.30;;;;;;;1.67;49.65;100628.94;5000240;28;20048;-77
2022/03/08 08:20:36;;;;;;;16.42;10.00;;;;;;;1.69;49.54;100627.13;5050162;28;20131;-77
2022/03/08 08:23:02;;;;;;;16.00;9.48;;;;;;;1.70;49.35;100631.44;5017204;28;20045;-78
2022/03/08 08:25:29;;;;;;;16.25;9.13;;;;;;;1.71;49.31;100627.06;5030372;28;20050;-75
2022/03/08 08:27:56;;;;;;;16.27;9.07;;;;;;;1.78;49.50;100630.28;5035786;28;20506;-77
2022/03/08 08:30:23;;;;;;;17.92;10.35;;;;;;;1.79;49.56;100618.91;5033379;28;20120;-76
2022/03/08 08:32:50;;;;;;;18.23;9.18;;;;;;;1.81;49.71;100622.34;5034582;28;20055;-76
2022/03/08 08:35:18;;;;;;;18.95;9.88;;;;;;;1.83;49.43;100613.50;5035056;28;20044;-77
2022/03/08 08:37:46;;;;;;;15.82;9.52;;;;;;;1.87;49.41;100614.22;5006818;28;20450;-78
2022/03/08 08:40:13;;;;;;;18.88;10.07;;;;;;;1.90;49.45;100612.31;5024598;28;20041;-78
2022/03/08 08:42:40;;;;;;;18.45;9.77;;;;;;;1.91;49.36;100608.81;4978235;28;20408;-78
2022/03/08 08:45:07;;;;;;;17.33;9.75;;;;;;;1.95;49.40;100599.88;5018719;28;20151;-78
2022/03/08 08:47:35;;;;;;;15.75;9.38;;;;;;;1.96;49.33;100608.63;5007566;28;20052;-77
2022/03/08 08:50:03;;;;;;;13.15;8.55;;;;;;;2.00;49.59;100598.84;5022764;28;20052;-77
2022/03/08 08:52:30;;;;;;;18.83;10.18;;;;;;;2.01;49.70;100595.31;5005774;28;20052;-78
2022/03/08 08:54:57;;;;;;;21.77;10.30;;;;;;;2.03;49.67;100598.72;5019334;28;20131;-78
2022/03/08 08:57:25;;;;;;;15.40;9.52;;;;;;;2.04;49.66;100595.22;5009113;28;20571;-77
2022/03/08 08:59:52;;;;;;;15.38;9.68;;;;;;;2.07;49.56;100595.94;5031269;28;20053;-78
2022/03/08 09:02:18;;;;;;;16.35;9.20;;;;;;;2.10;49.72;100594.94;5006073;28;20502;-78
2022/03/08 09:04:45;;;;;;;16.60;8.80;;;;;;;2.11;49.75;100588.78;5037397;28;20389;-77
2022/03/08 09:07:12;;;;;;;13.32;8.48;;;;;;;2.12;49.82;100578.25;5020559;28;20051;-77
2022/03/08 09:09:39;;;;;;;13.50;8.20;;;;;;;2.17;49.63;100581.53;5020363;28;20052;-77
2022/03/08 09:12:06;;;;;;;17.23;9.25;;;;;;;2.21;49.79;100582.25;5026458;28;20045;-77
2022/03/08 09:14:33;;;;;;;14.43;8.93;;;;;;;2.28;49.72;100580.22;4987181;28;20041;-78
2022/03/08 09:16:59;;;;;;;14.45;8.93;;;;;;;2.30;49.74;100587.09;5039052;28;20491;-78
2022/03/08 09:19:26;;;;;;;16.40;9.02;;;;;;;2.30;50.14;100579.25;5022097;28;20068;-77
2022/03/08 09:21:54;;;;;;;14.60;8.75;;;;;;;2.38;49.88;100579.75;5016250;28;20045;-78
2022/03/08 09:24:21;;;;;;;15.45;9.05;;;;;;;2.43;50.16;100582.19;5022478;28;20045;-79
2022/03/08 09:26:48;;;;;;;13.70;9.02;;;;;;;2.40;50.04;100584.94;5037830;28;20056;-77
2022/03/08 09:29:15;;;;;;;13.10;7.85;;;;;;;2.41;50.08;100583.19;5049396;28;20128;-77
2022/03/08 09:31:41;;;;;;;16.88;8.80;;;;;;;2.45;50.05;100571.66;5032842;28;20071;-77
2022/03/08 09:34:08;;;;;;;17.27;8.15;;;;;;;2.47;50.19;100573.28;5033685;28;20041;-77
2022/03/08 09:36:37;;;;;;;13.00;7.88;;;;;;;2.54;50.16;100574.72;5013507;28;20098;-77
2022/03/08 09:39:05;;;;;;;11.20;6.47;;;;;;;2.54;50.10;100574.72;5057083;28;20056;-77
2022/03/08 09:41:31;;;;;;;9.90;5.50;;;;;;;2.58;49.65;100580.69;5035103;28;20040;-77
2022/03/08 09:43:59;;;;;;;10.00;6.10;;;;;;;2.59;49.25;100572.75;4984198;28;20040;-77
2022/03/08 09:46:26;;;;;;;11.13;5.97;;;;;;;2.62;49.06;100558.69;5032481;28;20063;-78
2022/03/08 09:48:52;;;;;;;9.43;6.10;;;;;;;2.67;49.04;100555.81;5053140;28;20056;-77
2022/03/08 09:51:19;;;;;;;9.43;5.97;;;;;;;2.66;48.95;100560.22;5005206;28;20094;-77
2022/03/08 09:53:46;;;;;;;13.43;6.53;;;;;;;2.68;49.26;100558.38;5008277;28;20061;-78
2022/03/08 09:56:13;;;;;;;10.63;6.28;;;;;;;2.71;49.01;100557.41;5026937;28;20487;-78
2022/03/08 09:58:40;;;;;;;9.07;5.80;;;;;;;2.78;48.81;100553.59;5031952;28;20170;-78
2022/03/08 10:01:07;;;;;;;10.70;6.38;;;;;;;2.79;48.94;100550.03;5025331;28;20553;-78
2022/03/08 10:03:38;;;;;;;9.90;5.25;;;;;;;2.82;48.52;100548.16;5024280;28;20094;-77
2022/03/08 10:06:06;;;;;;;10.93;5.57;;;;;;;2.84;48.92;100550.69;5047645;28;20075;-78
2022/03/08 10:08:33;;;;;;;11.02;5.22;;;;;;;2.88;48.50;100548.78;5035797;28;20048;-77
2022/03/08 10:11:03;;;;;;;9.77;5.20;;;;;;;2.91;48.01;100552.13;5025872;28;20045;-77
2022/03/08 10:13:50;;;;;;;10.20;5.13;;;;;;;2.90;48.03;100547.81;5002513;28;20127;-77
2022/03/08 10:16:23;;;;;;;8.57;5.40;;;;;;;2.90;47.07;100547.81;5002478;28;20041;-78
2022/03/08 10:18:57;;;;;;;10.00;4.90;;;;;;;2.99;47.39;100536.88;5026618;28;20498;-77
2022/03/08 10:21:27;;;;;;;7.18;4.78;;;;;;;2.97;47.67;100533.47;5034937;28;20051;-77
2022/03/08 10:23:54;;;;;;;10.70;5.38;;;;;;;2.99;48.02;100542.13;5039406;28;20099;-77
2022/03/08 10:26:20;;;;;;;7.97;5.53;;;;;;;3.01;48.03;100534.19;5023051;28;20504;-78
2022/03/08 10:28:51;;;;;;;12.00;5.60;;;;;;;3.08;47.68;100534.75;5012877;28;20136;-77
2022/03/08 10:31:18;;;;;;;10.63;5.30;;;;;;;3.06;47.52;100519.09;5024494;28;20529;-76
2022/03/08 10:33:46;;;;;;;10.88;6.05;;;;;;;3.11;47.85;100527.59;5037630;28;20131;-77
2022/03/08 10:36:26;;;;;;;7.75;5.45;;;;;;;3.06;47.11;100529.56;4999501;28;20366;-78
2022/03/08 10:39:12;;;;;;;9.05;5.60;;;;;;;3.13;47.05;100517.00;5023908;28;20049;-78
2022/03/08 10:41:49;;;;;;;10.18;5.65;;;;;;;3.19;46.98;100511.50;5020019;28;20041;-76
2022/03/08 10:44:30;;;;;;;10.88;6.22;;;;;;;3.17;46.83;100502.84;5016188;28;20040;-76
2022/03/08 10:47:08;;;;;;;10.32;6.85;;;;;;;3.18;46.73;100508.03;5017726;28;20385;-77
2022/03/08 10:49:56;;;;;;;10.98;5.90;;;;;;;3.19;46.77;100499.22;4983254;28;20037;-77
2022/03/08 10:52:33;;;;;;;9.90;5.55;;;;;;;3.26;46.80;100497.16;4974416;28;20050;-80
2022/03/08 10:55:16;;;;;;;10.35;5.90;;;;;;;3.25;46.98;100493.66;5036328;28;20080;-77
2022/03/08 10:57:53;;;;;;;9.07;6.60;;;;;;;3.31;47.17;100483.78;5013116;28;20049;-77
2022/03/08 11:00:23;;;;;;;12.88;6.85;;;;;;;3.34;46.94;100488.91;5010387;28;20056;-77
2022/03/08 11:02:56;;;;;;;12.80;6.20;;;;;;;3.39;46.54;100486.91;5043853;28;20052;-77
2022/03/08 11:05:24;;;;;;;10.38;5.97;;;;;;;3.36;46.59;100484.41;5014482;28;20045;-77
2022/03/08 11:07:52;;;;;;;11.07;6.85;;;;;;;3.43;46.91;100472.69;5030889;28;20132;-77
2022/03/08 11:10:20;;;;;;;9.80;5.93;;;;;;;3.45;46.78;100468.22;5038706;28;20053;-78
2022/03/08 11:12:47;;;;;;;13.23;6.28;;;;;;;3.55;46.79;100477.38;5023560;28;20049;-77
2022/03/08 11:15:16;;;;;;;10.60;5.88;;;;;;;3.62;45.90;100464.78;5021745;28;20209;-78
2022/03/08 11:17:45;;;;;;;8.05;5.38;;;;;;;3.57;46.20;100470.25;5018521;28;20127;-77
2022/03/08 11:20:15;;;;;;;10.85;5.25;;;;;;;3.55;45.88;100466.84;5037626;28;20497;-77
2022/03/08 11:22:44;;;;;;;12.02;6.22;;;;;;;3.63;45.95;100469.94;5020088;28;20057;-77
2022/03/08 11:25:16;;;;;;;10.38;5.85;;;;;;;3.61;45.99;100471.81;5012221;28;20059;-77
2022/03/08 11:28:04;;;;;;;10.32;5.53;;;;;;;3.62;46.73;100470.03;4985505;28;20507;-78